Time;durP1;ratioP1;P1;durP2;ratioP2;P2;SDS_P1;SDS_P2;PMS_P1;PMS_P2;Temp;Humidity;BMP_temperature;BMP_pressure;BME280_temperature;BME280_humidity;BME280_pressure;Samples;Min_cycle;Max_cycle;Signal;HPM_P1;HPM_P2
2022/01/05 00:00:49;;;;;;;7.70;3.20;;;;;;;;;;5073470;28;20024;-78
2022/01/05 00:03:16;;;;;;;6.80;3.15;;;;;;;;;;5073570;28;20028;-79
2022/01/05 00:05:43;;;;;;;5.90;2.80;;;;;;;;;;5074119;28;20025;-79
2022/01/05 00:08:09;;;;;;;6.45;2.85;;;;;;;;;;5072278;28;20029;-79
2022/01/05 00:10:35;;;;;;;7.82;3.03;;;;;;;;;;5072207;28;20473;-79
2022/01/05 00:13:01;;;;;;;6.18;2.80;;;;;;;;;;5072132;28;20043;-79
2022/01/05 00:15:27;;;;;;;7.18;2.80;;;;;;;;;;5072311;28;20060;-79
2022/01/05 00:17:54;;;;;;;5.43;2.70;;;;;;;;;;5072133;28;20059;-79
2022/01/05 00:20:20;;;;;;;6.07;2.90;;;;;;;;;;5072207;28;20400;-79
2022/01/05 00:22:46;;;;;;;6.25;2.65;;;;;;;;;;5073267;28;20029;-79
2022/01/05 00:25:12;;;;;;;5.25;2.40;;;;;;;;;;5072131;28;20032;-79
2022/01/05 00:27:38;;;;;;;6.18;2.55;;;;;;;;;;5072054;28;20021;-79
2022/01/05 00:30:05;;;;;;;4.68;2.53;;;;;;;;;;5073316;28;20024;-78
2022/01/05 00:32:31;;;;;;;4.65;2.30;;;;;;;;;;5072171;28;20027;-79
2022/01/05 00:34:57;;;;;;;5.95;2.60;;;;;;;;;;5072027;28;20036;-80
2022/01/05 00:37:24;;;;;;;4.15;2.42;;;;;;;;;;5073161;28;20036;-79
2022/01/05 00:39:50;;;;;;;5.03;2.58;;;;;;;;;;5072072;28;20029;-79
2022/01/05 00:42:16;;;;;;;4.35;2.50;;;;;;;;;;5074196;28;20043;-79
2022/01/05 00:44:42;;;;;;;4.82;2.33;;;;;;;;;;5075357;28;20479;-79
2022/01/05 00:47:08;;;;;;;5.65;2.60;;;;;;;;;;5075270;28;20119;-79
2022/01/05 00:49:34;;;;;;;5.80;2.45;;;;;;;;;;5075456;28;20059;-79
2022/01/05 00:52:00;;;;;;;4.28;2.40;;;;;;;;;;5075322;28;20028;-79
2022/01/05 00:54:27;;;;;;;5.00;2.40;;;;;;;;;;5075303;28;20157;-78
2022/01/05 00:56:53;;;;;;;6.28;2.58;;;;;;;;;;5093277;28;20039;-78
2022/01/05 00:59:19;;;;;;;5.45;2.33;;;;;;;;;;5093045;28;20369;-79
2022/01/05 01:01:45;;;;;;;5.88;2.80;;;;;;;;;;5074704;28;20484;-78
2022/01/05 01:04:11;;;;;;;8.20;2.90;;;;;;;;;;5096248;28;20449;-78
2022/01/05 01:06:38;;;;;;;5.57;2.28;;;;;;;;;;5078954;28;20052;-77
2022/01/05 01:09:04;;;;;;;4.38;2.55;;;;;;;;;;5097144;28;20020;-78
2022/01/05 01:11:30;;;;;;;6.07;2.65;;;;;;;;;;5078900;28;20056;-77
2022/01/05 01:13:57;;;;;;;3.88;2.50;;;;;;;;;;5097114;28;20026;-79
2022/01/05 01:16:23;;;;;;;6.35;2.90;;;;;;;;;;5078796;28;20551;-79
2022/01/05 01:18:49;;;;;;;7.00;3.38;;;;;;;;;;5097013;28;20067;-79
2022/01/05 01:21:15;;;;;;;7.65;3.20;;;;;;;;;;5078584;28;20047;-78
2022/01/05 01:23:52;;;;;;;5.55;2.80;;;;;;;;;;5078603;28;20070;-78
2022/01/05 01:26:19;;;;;;;8.82;2.47;;;;;;;;;;5078661;28;20024;-77
2022/01/05 01:28:45;;;;;;;6.85;3.42;;;;;;;;;;5097302;28;20357;-78
2022/01/05 01:31:11;;;;;;;8.70;3.90;;;;;;;;;;5078520;28;20024;-79
2022/01/05 01:33:37;;;;;;;7.63;3.90;;;;;;;;;;5096406;28;20035;-79
2022/01/05 01:36:04;;;;;;;7.63;4.03;;;;;;;;;;5078220;28;20031;-78
2022/01/05 01:38:30;;;;;;;7.05;3.45;;;;;;;;;;5096567;28;20499;-78
2022/01/05 01:40:57;;;;;;;8.70;3.72;;;;;;;;;;5097087;28;20028;-78
2022/01/05 01:43:23;;;;;;;12.05;3.10;;;;;;;;;;5096347;28;20036;-78
2022/01/05 01:45:49;;;;;;;7.70;3.13;;;;;;;;;;5078314;28;20024;-78
2022/01/05 01:48:15;;;;;;;7.43;3.08;;;;;;;;;;5078150;28;20032;-79
2022/01/05 01:50:41;;;;;;;5.57;2.40;;;;;;;;;;5078170;28;20043;-77
2022/01/05 01:53:08;;;;;;;6.40;3.08;;;;;;;;;;5096290;28;20032;-77
2022/01/05 01:55:37;;;;;;;7.00;3.38;;;;;;;;;;5096236;28;20020;-78
2022/01/05 01:58:05;;;;;;;6.80;3.45;;;;;;;;;;5077978;28;20039;-77
2022/01/05 02:00:31;;;;;;;6.95;3.17;;;;;;;;;;5096071;28;20415;-77
2022/01/05 02:02:57;;;;;;;6.28;3.67;;;;;;;;;;5096088;28;20102;-79
2022/01/05 02:05:24;;;;;;;7.43;3.22;;;;;;;;;;5077916;28;20046;-77
2022/01/05 02:07:50;;;;;;;6.95;3.42;;;;;;;;;;5077806;28;20032;-77
2022/01/05 02:10:16;;;;;;;7.00;3.30;;;;;;;;;;5096033;28;20024;-77
2022/01/05 02:12:42;;;;;;;8.95;3.10;;;;;;;;;;5095769;28;20035;-78
2022/01/05 02:15:09;;;;;;;8.13;3.65;;;;;;;;;;5077525;28;20020;-77
2022/01/05 02:17:48;;;;;;;8.10;3.72;;;;;;;;;;5077218;28;20446;-77
2022/01/05 02:20:22;;;;;;;7.32;3.53;;;;;;;;;;5077125;28;20385;-79
2022/01/05 02:22:49;;;;;;;6.28;3.38;;;;;;;;;;5077228;28;20377;-77
2022/01/05 02:25:16;;;;;;;6.80;3.25;;;;;;;;;;5077318;28;20027;-76
2022/01/05 02:27:42;;;;;;;6.95;3.47;;;;;;;;;;5077209;28;20043;-78
2022/01/05 02:30:10;;;;;;;7.70;3.60;;;;;;;;;;5077279;28;20465;-78
2022/01/05 02:32:36;;;;;;;9.15;3.83;;;;;;;;;;5077273;28;20433;-77
2022/01/05 02:35:03;;;;;;;7.57;3.90;;;;;;;;;;5077119;28;20025;-79
2022/01/05 02:37:29;;;;;;;7.35;3.70;;;;;;;;;;5095340;28;20032;-79
2022/01/05 02:39:55;;;;;;;7.25;3.60;;;;;;;;;;5077307;28;20023;-77
2022/01/05 02:42:25;;;;;;;8.63;3.92;;;;;;;;;;5076995;28;20056;-77
2022/01/05 02:44:52;;;;;;;8.70;4.00;;;;;;;;;;5077152;28;20032;-77
2022/01/05 02:47:18;;;;;;;9.63;4.30;;;;;;;;;;5077080;28;20035;-77
2022/01/05 02:49:44;;;;;;;10.10;4.15;;;;;;;;;;5077055;28;20024;-77
2022/01/05 02:52:10;;;;;;;10.27;3.97;;;;;;;;;;5077003;28;20085;-78
2022/01/05 02:54:36;;;;;;;9.90;4.00;;;;;;;;;;5095076;28;20069;-77
2022/01/05 02:57:03;;;;;;;6.45;3.92;;;;;;;;;;5095004;28;20441;-78
2022/01/05 02:59:29;;;;;;;8.35;3.60;;;;;;;;;;5076811;28;20020;-77
2022/01/05 03:01:55;;;;;;;7.30;3.42;;;;;;;;;;5094987;28;20020;-77
2022/01/05 03:04:23;;;;;;;7.75;3.88;;;;;;;;;;5095325;28;20099;-76
2022/01/05 03:06:49;;;;;;;6.75;4.03;;;;;;;;;;5076817;28;20028;-77
2022/01/05 03:09:16;;;;;;;9.35;4.35;;;;;;;;;;5094925;28;20074;-79
2022/01/05 03:11:42;;;;;;;8.73;4.10;;;;;;;;;;5094754;28;20111;-79
2022/01/05 03:14:08;;;;;;;7.82;3.75;;;;;;;;;;5076614;28;20069;-78
2022/01/05 03:16:34;;;;;;;10.02;4.38;;;;;;;;;;5095096;28;20107;-79
2022/01/05 03:19:00;;;;;;;8.48;4.32;;;;;;;;;;5076443;28;20054;-77
2022/01/05 03:21:26;;;;;;;9.80;3.95;;;;;;;;;;5076452;28;20020;-78
2022/01/05 03:23:53;;;;;;;10.73;4.65;;;;;;;;;;5094496;28;20537;-77
2022/01/05 03:26:19;;;;;;;9.93;4.50;;;;;;;;;;5094540;28;20039;-77
2022/01/05 03:28:45;;;;;;;7.57;4.25;;;;;;;;;;5076216;28;20024;-77
2022/01/05 03:31:11;;;;;;;7.15;4.40;;;;;;;;;;5094920;28;20024;-77
2022/01/05 03:33:37;;;;;;;8.88;4.63;;;;;;;;;;5094866;28;20054;-78
2022/01/05 03:36:04;;;;;;;9.45;4.03;;;;;;;;;;5075984;28;20028;-77
2022/01/05 03:38:30;;;;;;;8.38;4.28;;;;;;;;;;5076050;28;20040;-77
2022/01/05 03:40:57;;;;;;;9.45;4.20;;;;;;;;;;5076116;28;20049;-79
2022/01/05 03:43:23;;;;;;;8.70;3.90;;;;;;;;;;5075799;28;20475;-79
2022/01/05 03:45:51;;;;;;;9.43;4.82;;;;;;;;;;5076013;28;20030;-78
2022/01/05 03:48:18;;;;;;;9.02;5.00;;;;;;;;;;5094068;28;20537;-76
2022/01/05 03:50:45;;;;;;;9.95;4.82;;;;;;;;;;5075888;28;20055;-77
2022/01/05 03:53:11;;;;;;;7.88;4.40;;;;;;;;;;5093996;28;20082;-77
2022/01/05 03:55:38;;;;;;;9.68;4.80;;;;;;;;;;5094544;28;20016;-77
2022/01/05 03:58:05;;;;;;;9.25;4.90;;;;;;;;;;5075713;28;20032;-77
2022/01/05 04:00:32;;;;;;;9.02;4.72;;;;;;;;;;5075696;28;20027;-76
2022/01/05 04:02:58;;;;;;;8.82;4.60;;;;;;;;;;5075719;28;20024;-77
2022/01/05 04:05:24;;;;;;;11.55;4.97;;;;;;;;;;5075736;28;20027;-77
2022/01/05 04:07:51;;;;;;;8.68;4.72;;;;;;;;;;5075588;28;20028;-78
2022/01/05 04:10:18;;;;;;;9.88;4.85;;;;;;;;;;5093584;28;20059;-78
2022/01/05 04:12:44;;;;;;;13.95;5.15;;;;;;;;;;5075455;28;20020;-78
2022/01/05 04:15:11;;;;;;;11.82;5.13;;;;;;;;;;5075542;28;20032;-76
2022/01/05 04:17:37;;;;;;;10.95;4.97;;;;;;;;;;5075414;28;20077;-76
2022/01/05 04:20:04;;;;;;;10.60;5.30;;;;;;;;;;5093681;28;20025;-78
2022/01/05 04:22:31;;;;;;;9.05;5.38;;;;;;;;;;5075529;28;20081;-77
2022/01/05 04:24:57;;;;;;;12.52;5.57;;;;;;;;;;5093525;28;20028;-76
2022/01/05 04:27:24;;;;;;;11.00;5.50;;;;;;;;;;5093444;28;20024;-77
2022/01/05 04:29:50;;;;;;;9.43;4.95;;;;;;;;;;5093471;28;20024;-78
2022/01/05 04:32:16;;;;;;;8.57;4.97;;;;;;;;;;5075423;28;20392;-77
2022/01/05 04:34:42;;;;;;;10.20;4.63;;;;;;;;;;5075324;28;20426;-78
2022/01/05 04:37:08;;;;;;;10.65;5.50;;;;;;;;;;5093362;28;20035;-78
2022/01/05 04:39:35;;;;;;;8.95;4.78;;;;;;;;;;5097257;28;20031;-77
2022/01/05 04:42:01;;;;;;;7.65;4.32;;;;;;;;;;5097551;28;20024;-78
2022/01/05 04:44:27;;;;;;;8.50;4.30;;;;;;;;;;5079059;28;20052;-79
2022/01/05 04:46:54;;;;;;;6.00;3.35;;;;;;;;;;5097478;28;20494;-77
2022/01/05 04:49:20;;;;;;;8.85;4.20;;;;;;;;;;5097305;28;20020;-77
2022/01/05 04:51:46;;;;;;;9.18;3.83;;;;;;;;;;5079255;28;20034;-78
2022/01/05 04:54:13;;;;;;;5.50;3.38;;;;;;;;;;5079119;28;20028;-79
2022/01/05 04:56:39;;;;;;;8.25;3.65;;;;;;;;;;5097244;28;20086;-78
2022/01/05 04:59:05;;;;;;;4.93;3.00;;;;;;;;;;5097356;28;20024;-77
2022/01/05 05:01:31;;;;;;;6.93;3.13;;;;;;;;;;5097316;28;20093;-77
2022/01/05 05:03:57;;;;;;;6.60;3.70;;;;;;;;;;5097760;28;20024;-77
2022/01/05 05:06:24;;;;;;;7.97;4.40;;;;;;;;;;5079065;28;20024;-79
2022/01/05 05:08:50;;;;;;;7.10;4.57;;;;;;;;;;5078933;28;20108;-77
2022/01/05 05:11:17;;;;;;;10.73;4.75;;;;;;;;;;5097087;28;20138;-79
2022/01/05 05:13:43;;;;;;;10.70;4.63;;;;;;;;;;5078832;28;20024;-77
2022/01/05 05:16:09;;;;;;;7.63;4.65;;;;;;;;;;5096951;28;20028;-77
2022/01/05 05:18:36;;;;;;;8.30;4.18;;;;;;;;;;5096949;28;20064;-79
2022/01/05 05:21:02;;;;;;;8.27;4.28;;;;;;;;;;5096971;28;20020;-79
2022/01/05 05:23:28;;;;;;;7.97;4.30;;;;;;;;;;5078614;28;20062;-78
2022/01/05 05:25:55;;;;;;;6.30;3.50;;;;;;;;;;5097350;28;20350;-77
2022/01/05 05:28:21;;;;;;;6.95;2.95;;;;;;;;;;5078543;28;20545;-77
2022/01/05 05:30:47;;;;;;;3.90;2.50;;;;;;;;;;5078630;28;20032;-79
2022/01/05 05:33:13;;;;;;;5.60;1.88;;;;;;;;;;5077668;28;20035;-79
2022/01/05 05:35:41;;;;;;;4.57;1.58;;;;;;;;;;5077584;28;20156;-78
2022/01/05 05:38:08;;;;;;;2.42;1.10;;;;;;;;;;5078077;28;20028;-79
2022/01/05 05:40:34;;;;;;;2.60;0.82;;;;;;;;;;5096533;28;20028;-79
2022/01/05 05:43:00;;;;;;;1.83;0.70;;;;;;;;;;5078207;28;20044;-78
2022/01/05 05:45:27;;;;;;;1.98;0.73;;;;;;;;;;5096958;28;20070;-79
2022/01/05 05:47:53;;;;;;;2.05;0.70;;;;;;;;;;5078277;28;20369;-79
2022/01/05 05:50:19;;;;;;;2.35;0.90;;;;;;;;;;5095865;28;20035;-79
2022/01/05 05:52:46;;;;;;;3.88;0.70;;;;;;;;;;5078141;28;20016;-79
2022/01/05 05:55:12;;;;;;;2.95;0.80;;;;;;;;;;5078131;28;20081;-78
2022/01/05 05:57:39;;;;;;;2.65;0.70;;;;;;;;;;5096864;28;20051;-80
2022/01/05 06:00:06;;;;;;;1.40;0.60;;;;;;;;;;5077828;28;20020;-79
2022/01/05 06:02:32;;;;;;;1.98;0.80;;;;;;;;;;5095902;28;20042;-79
2022/01/05 06:04:58;;;;;;;2.08;0.80;;;;;;;;;;5077789;28;20020;-79
2022/01/05 06:07:26;;;;;;;1.88;0.82;;;;;;;;;;5077839;28;20028;-78
2022/01/05 06:09:52;;;;;;;1.95;0.80;;;;;;;;;;5077570;28;20028;-79
2022/01/05 06:12:18;;;;;;;2.55;1.00;;;;;;;;;;5077721;28;20024;-79
2022/01/05 06:14:44;;;;;;;1.85;1.00;;;;;;;;;;5077507;28;20027;-79
2022/01/05 06:17:10;;;;;;;1.95;1.02;;;;;;;;;;5077502;28;20036;-79
2022/01/05 06:19:37;;;;;;;2.03;0.88;;;;;;;;;;5077433;28;20021;-78
2022/01/05 06:22:03;;;;;;;4.90;1.45;;;;;;;;;;5095847;28;20365;-79
2022/01/05 06:24:29;;;;;;;4.53;2.15;;;;;;;;;;5095638;28;20020;-79
2022/01/05 06:26:55;;;;;;;8.05;3.60;;;;;;;;;;5077312;28;20020;-79
2022/01/05 06:29:21;;;;;;;9.80;4.35;;;;;;;;;;5077300;28;20024;-79
2022/01/05 06:31:48;;;;;;;8.57;4.22;;;;;;;;;;5077183;28;20028;-79
2022/01/05 06:34:14;;;;;;;10.25;4.40;;;;;;;;;;5095326;28;20031;-79
2022/01/05 06:36:40;;;;;;;9.23;4.35;;;;;;;;;;5077118;28;20032;-79
2022/01/05 06:39:06;;;;;;;9.02;4.07;;;;;;;;;;5077106;28;20032;-78
2022/01/05 06:41:32;;;;;;;7.32;4.25;;;;;;;;;;5077609;28;20344;-79
2022/01/05 06:43:58;;;;;;;7.95;4.30;;;;;;;;;;5077123;28;20436;-78
2022/01/05 06:46:25;;;;;;;6.57;3.22;;;;;;;;;;5077002;28;20103;-79
2022/01/05 06:48:51;;;;;;;6.13;3.22;;;;;;;;;;5077181;28;20052;-79
2022/01/05 06:51:17;;;;;;;7.07;3.53;;;;;;;;;;5094919;28;20028;-79
2022/01/05 06:53:43;;;;;;;8.35;4.20;;;;;;;;;;5077387;28;20388;-83
2022/01/05 06:56:09;;;;;;;6.10;2.30;;;;;;;;;;5077226;28;20031;-82
2022/01/05 06:58:35;;;;;;;4.88;2.80;;;;;;;;;;5077361;28;20024;-84
2022/01/05 07:01:01;;;;;;;4.93;2.45;;;;;;;;;;5076179;28;20023;-80
2022/01/05 07:03:27;;;;;;;4.43;2.50;;;;;;;;;;5077066;28;20166;-80
2022/01/05 07:05:54;;;;;;;5.28;2.63;;;;;;;;;;5076680;28;20024;-81
2022/01/05 07:08:20;;;;;;;6.13;2.95;;;;;;;;;;5076647;28;20105;-77
2022/01/05 07:10:46;;;;;;;6.80;3.30;;;;;;;;;;5076438;28;20052;-78
2022/01/05 07:13:12;;;;;;;6.00;3.40;;;;;;;;;;5076723;28;20024;-80
2022/01/05 07:15:38;;;;;;;6.47;3.53;;;;;;;;;;5094563;28;20028;-78
2022/01/05 07:18:04;;;;;;;3.80;2.28;;;;;;;;;;5076283;28;20078;-80
2022/01/05 07:20:30;;;;;;;4.20;2.22;;;;;;;;;;5076309;28;20032;-76
2022/01/05 07:22:57;;;;;;;4.68;2.33;;;;;;;;;;5076414;28;20430;-81
2022/01/05 07:25:23;;;;;;;6.45;3.00;;;;;;;;;;5076197;28;20085;-76
2022/01/05 07:27:49;;;;;;;2.45;1.27;;;;;;;;;;5076424;28;20055;-78
2022/01/05 07:30:15;;;;;;;2.17;1.00;;;;;;;;;;5075714;28;20024;-78
2022/01/05 07:32:41;;;;;;;2.05;1.00;;;;;;;;;;5076103;28;20452;-78
2022/01/05 07:35:08;;;;;;;2.17;0.75;;;;;;;;;;5075986;28;20016;-78
2022/01/05 07:37:34;;;;;;;2.60;1.00;;;;;;;;;;5075750;28;20039;-77
2022/01/05 07:40:00;;;;;;;1.25;0.70;;;;;;;;;;5075939;28;20035;-77
2022/01/05 07:42:30;;;;;;;6.38;2.50;;;;;;;;;;5075609;28;20036;-78
2022/01/05 07:44:57;;;;;;;5.70;1.95;;;;;;;;;;5075930;28;20042;-78
2022/01/05 07:47:23;;;;;;;4.88;2.15;;;;;;;;;;5075893;28;20028;-78
2022/01/05 07:49:51;;;;;;;2.85;1.45;;;;;;;;;;5076241;28;20059;-80
2022/01/05 07:52:17;;;;;;;2.15;0.90;;;;;;;;;;5075856;28;20101;-79
2022/01/05 07:54:43;;;;;;;2.22;1.05;;;;;;;;;;5075559;28;20384;-79
2022/01/05 07:57:09;;;;;;;2.65;1.15;;;;;;;;;;5075164;28;20039;-79
2022/01/05 07:59:35;;;;;;;4.55;1.30;;;;;;;;;;5075192;28;20085;-79
2022/01/05 08:02:01;;;;;;;2.70;1.50;;;;;;;;;;5075262;28;20411;-79
2022/01/05 08:04:27;;;;;;;3.35;1.77;;;;;;;;;;5075456;28;20403;-79
2022/01/05 08:06:53;;;;;;;3.90;2.30;;;;;;;;;;5074929;28;20198;-79
2022/01/05 08:09:20;;;;;;;5.03;2.72;;;;;;;;;;5093290;28;20021;-79
2022/01/05 08:11:46;;;;;;;4.40;2.65;;;;;;;;;;5093186;28;20365;-78
2022/01/05 08:14:12;;;;;;;6.47;2.80;;;;;;;;;;5093705;28;20088;-78
2022/01/05 08:16:38;;;;;;;6.55;2.80;;;;;;;;;;5093642;28;20024;-77
2022/01/05 08:19:04;;;;;;;6.78;2.70;;;;;;;;;;5075483;28;20054;-77
2022/01/05 08:21:30;;;;;;;4.53;2.28;;;;;;;;;;5093304;28;20094;-78
2022/01/05 08:23:57;;;;;;;7.05;2.50;;;;;;;;;;5075235;28;20028;-78
2022/01/05 08:26:23;;;;;;;4.25;2.35;;;;;;;;;;5075320;28;20031;-77
2022/01/05 08:28:49;;;;;;;4.85;3.10;;;;;;;;;;5093420;28;20038;-80
2022/01/05 08:31:15;;;;;;;3.10;1.70;;;;;;;;;;5075683;28;20530;-81
2022/01/05 08:33:42;;;;;;;4.80;2.67;;;;;;;;;;5075441;28;20035;-78
2022/01/05 08:36:08;;;;;;;6.45;3.78;;;;;;;;;;5075202;28;20094;-79
2022/01/05 08:38:37;;;;;;;10.88;3.60;;;;;;;;;;5093079;28;20032;-80
2022/01/05 08:41:03;;;;;;;9.45;2.40;;;;;;;;;;5092955;28;20118;-78
2022/01/05 08:43:31;;;;;;;6.90;2.05;;;;;;;;;;5092948;28;20545;-80
2022/01/05 08:45:57;;;;;;;4.53;1.95;;;;;;;;;;5092689;28;20024;-81
2022/01/05 08:48:23;;;;;;;3.05;1.75;;;;;;;;;;5075311;28;20036;-79
2022/01/05 08:50:51;;;;;;;4.13;1.92;;;;;;;;;;5075035;28;20020;-78
2022/01/05 08:53:17;;;;;;;4.68;2.45;;;;;;;;;;5074950;28;20024;-78
2022/01/05 08:55:45;;;;;;;4.78;2.40;;;;;;;;;;5074776;28;20016;-79
2022/01/05 08:58:12;;;;;;;8.23;4.13;;;;;;;;;;5074667;28;20067;-78
2022/01/05 09:00:38;;;;;;;6.78;3.88;;;;;;;;;;5075307;28;20461;-79
2022/01/05 09:03:05;;;;;;;5.50;3.20;;;;;;;;;;5093020;28;20099;-79
2022/01/05 09:05:31;;;;;;;7.03;2.70;;;;;;;;;;5074692;28;20024;-79
2022/01/05 09:07:58;;;;;;;13.77;2.75;;;;;;;;;;5074910;28;20017;-79
2022/01/05 09:10:24;;;;;;;4.25;1.27;;;;;;;;;;5093213;28;20032;-78
2022/01/05 09:12:50;;;;;;;2.92;1.60;;;;;;;;;;5075172;28;20047;-79
2022/01/05 09:15:16;;;;;;;3.20;1.15;;;;;;;;;;5075211;28;20032;-80
2022/01/05 09:17:43;;;;;;;5.93;2.00;;;;;;;;;;5092867;28;20042;-78
2022/01/05 09:20:10;;;;;;;1.67;0.82;;;;;;;;;;5074597;28;20031;-78
2022/01/05 09:22:38;;;;;;;2.38;0.73;;;;;;;;;;5092722;28;20530;-80
2022/01/05 09:25:05;;;;;;;1.25;0.50;;;;;;;;;;5076531;28;20020;-80
2022/01/05 09:27:31;;;;;;;1.80;0.47;;;;;;;;;;5078495;28;20433;-80
2022/01/05 09:29:57;;;;;;;1.90;0.80;;;;;;;;;;5078576;28;20024;-79
2022/01/05 09:32:23;;;;;;;1.40;0.85;;;;;;;;;;5096694;28;20497;-80
2022/01/05 09:34:50;;;;;;;3.17;0.80;;;;;;;;;;5097239;28;20024;-80
2022/01/05 09:37:27;;;;;;;2.55;0.95;;;;;;;;;;5078379;28;20126;-78
2022/01/05 09:42:40;;;;;;;2.88;1.30;;;;;;;;;;5096414;28;20174;-79
2022/01/05 09:45:16;;;;;;;3.70;1.30;;;;;;;;;;5078275;28;20047;-79
2022/01/05 09:47:42;;;;;;;1.90;1.00;;;;;;;;;;5078287;28;20080;-79
2022/01/05 09:50:10;;;;;;;2.60;1.10;;;;;;;;;;5078099;28;20473;-80
2022/01/05 09:52:38;;;;;;;2.40;1.02;;;;;;;;;;5078252;28;20020;-77
2022/01/05 09:55:05;;;;;;;1.83;0.85;;;;;;;;;;5096888;28;20024;-79
2022/01/05 09:57:32;;;;;;;1.23;0.75;;;;;;;;;;5096132;28;20134;-80
2022/01/05 09:59:59;;;;;;;1.92;0.70;;;;;;;;;;5096701;28;20062;-76
2022/01/05 10:02:26;;;;;;;2.55;0.60;;;;;;;;;;5096155;28;20030;-80
2022/01/05 10:04:53;;;;;;;1.42;0.70;;;;;;;;;;5096137;28;20028;-80
2022/01/05 10:07:20;;;;;;;2.83;0.80;;;;;;;;;;5096066;28;20035;-80
2022/01/05 10:09:49;;;;;;;2.28;0.77;;;;;;;;;;5095943;28;20062;-80
2022/01/05 10:12:15;;;;;;;2.58;0.70;;;;;;;;;;5096515;28;20093;-77
2022/01/05 10:14:42;;;;;;;1.30;0.63;;;;;;;;;;5096892;28;20063;-80
2022/01/05 10:17:10;;;;;;;2.53;1.00;;;;;;;;;;5096449;28;20381;-80
2022/01/05 10:19:37;;;;;;;1.33;0.60;;;;;;;;;;5077713;28;20031;-80
2022/01/05 10:22:05;;;;;;;1.15;0.50;;;;;;;;;;5077690;28;20062;-80
2022/01/05 10:24:44;;;;;;;1.38;0.52;;;;;;;;;;5095779;28;20107;-79
2022/01/05 10:27:20;;;;;;;1.10;0.52;;;;;;;;;;5077648;28;20032;-80
2022/01/05 10:29:57;;;;;;;0.88;0.40;;;;;;;;;;5096237;28;20027;-80
2022/01/05 10:32:24;;;;;;;2.60;1.00;;;;;;;;;;5077486;28;20469;-79
2022/01/05 10:35:00;;;;;;;0.75;0.30;;;;;;;;;;5095459;28;20023;-80
2022/01/05 10:37:26;;;;;;;2.13;0.70;;;;;;;;;;5076796;28;20032;-80
2022/01/05 10:40:06;;;;;;;0.95;0.40;;;;;;;;;;5077260;28;20032;-80
2022/01/05 10:42:33;;;;;;;1.02;0.40;;;;;;;;;;5076920;28;20086;-80
2022/01/05 10:45:01;;;;;;;1.20;0.50;;;;;;;;;;5095867;28;20028;-78
2022/01/05 10:47:27;;;;;;;0.98;0.40;;;;;;;;;;5095335;28;20027;-79
2022/01/05 10:49:54;;;;;;;1.50;0.70;;;;;;;;;;5095233;28;20035;-79
2022/01/05 10:52:21;;;;;;;1.30;0.68;;;;;;;;;;5095160;28;20107;-79
2022/01/05 10:54:47;;;;;;;2.00;0.85;;;;;;;;;;5095130;28;20112;-79
2022/01/05 10:57:14;;;;;;;1.67;0.80;;;;;;;;;;5094992;28;20036;-78
2022/01/05 10:59:42;;;;;;;1.70;0.80;;;;;;;;;;5094943;28;20121;-79
2022/01/05 11:02:21;;;;;;;1.10;0.52;;;;;;;;;;5095056;28;20114;-79
2022/01/05 11:04:48;;;;;;;2.03;0.80;;;;;;;;;;5076729;28;20161;-78
2022/01/05 11:07:21;;;;;;;1.10;0.60;;;;;;;;;;5094949;28;20035;-79
2022/01/05 11:09:47;;;;;;;;;;;;;;;;;;5077093;28;20031;-78
2022/01/05 11:12:14;;;;;;;2.45;0.65;;;;;;;;;;5095388;28;19904;-77
2022/01/05 11:14:40;;;;;;;1.42;0.70;;;;;;;;;;5076527;28;20031;-80
2022/01/05 11:17:07;;;;;;;1.00;0.57;;;;;;;;;;5094629;28;20032;-81
2022/01/05 11:19:35;;;;;;;1.45;0.55;;;;;;;;;;5094645;28;20028;-78
2022/01/05 11:22:11;;;;;;;1.65;0.60;;;;;;;;;;5094623;28;20066;-78
2022/01/05 11:24:37;;;;;;;1.38;0.70;;;;;;;;;;5076429;28;20027;-78
2022/01/05 11:27:04;;;;;;;2.05;0.85;;;;;;;;;;5076371;28;20476;-79
2022/01/05 11:29:30;;;;;;;1.58;0.70;;;;;;;;;;5076324;28;20154;-79
2022/01/05 11:31:57;;;;;;;2.10;0.88;;;;;;;;;;5094946;28;20060;-75
2022/01/05 11:34:26;;;;;;;4.88;2.42;;;;;;;;;;5076298;28;20028;-80
2022/01/05 11:36:53;;;;;;;3.80;1.13;;;;;;;;;;5094186;28;20030;-80
2022/01/05 11:39:19;;;;;;;1.73;0.70;;;;;;;;;;5094828;28;20039;-80
2022/01/05 11:41:47;;;;;;;1.10;0.55;;;;;;;;;;5094255;28;20016;-80
2022/01/05 11:44:13;;;;;;;1.52;0.75;;;;;;;;;;5072885;28;20077;-80
2022/01/05 11:46:43;;;;;;;1.58;0.90;;;;;;;;;;5074560;28;20025;-80
2022/01/05 11:49:12;;;;;;;2.03;1.23;;;;;;;;;;5073805;28;20099;-79
2022/01/05 11:51:41;;;;;;;1.98;1.20;;;;;;;;;;5072520;28;20028;-79
2022/01/05 11:54:13;;;;;;;2.03;1.13;;;;;;;;;;5072545;28;20024;-79
2022/01/05 11:56:41;;;;;;;2.00;1.35;;;;;;;;;;5072381;28;20511;-75
2022/01/05 11:59:19;;;;;;;3.63;2.00;;;;;;;;;;5072436;28;20086;-79
2022/01/05 12:01:57;;;;;;;2.33;1.40;;;;;;;;;;5072452;28;20358;-79
2022/01/05 12:04:24;;;;;;;2.40;1.30;;;;;;;;;;5072415;28;20397;-79
2022/01/05 12:06:50;;;;;;;1.40;0.80;;;;;;;;;;5073649;28;20020;-75
2022/01/05 12:09:21;;;;;;;2.42;1.30;;;;;;;;;;5073636;28;20123;-79
2022/01/05 12:11:47;;;;;;;1.77;0.93;;;;;;;;;;5073545;28;20074;-78
2022/01/05 12:14:22;;;;;;;1.50;0.60;;;;;;;;;;5074117;28;20028;-79
2022/01/05 12:17:01;;;;;;;1.30;0.60;;;;;;;;;;5072167;28;20024;-79
2022/01/05 12:19:28;;;;;;;1.13;0.60;;;;;;;;;;5072223;28;20032;-79
2022/01/05 12:21:56;;;;;;;1.27;0.57;;;;;;;;;;5073440;28;20044;-79
2022/01/05 12:24:22;;;;;;;1.60;0.60;;;;;;;;;;5072125;28;20396;-79
2022/01/05 12:27:15;;;;;;;1.48;0.60;;;;;;;;;;5073918;28;20028;-79
2022/01/05 12:29:43;;;;;;;1.33;0.70;;;;;;;;;;5071371;28;20040;-80
2022/01/05 12:32:09;;;;;;;1.77;0.70;;;;;;;;;;5072151;28;20044;-79
2022/01/05 12:34:52;;;;;;;1.40;0.43;;;;;;;;;;5073332;28;20422;-79
2022/01/05 12:37:41;;;;;;;1.75;0.95;;;;;;;;;;5073224;28;20040;-79
2022/01/05 12:40:23;;;;;;;1.70;0.70;;;;;;;;;;5066542;28;20365;-79
2022/01/05 12:42:50;;;;;;;1.00;0.50;;;;;;;;;;5078285;28;20396;-80
2022/01/05 12:45:35;;;;;;;1.83;0.93;;;;;;;;;;5075367;28;20032;-79
2022/01/05 12:48:01;;;;;;;0.98;0.40;;;;;;;;;;5075296;28;20122;-79
2022/01/05 12:50:33;;;;;;;0.85;0.43;;;;;;;;;;5075220;28;20111;-79
2022/01/05 12:52:59;;;;;;;1.42;0.65;;;;;;;;;;5075311;28;20031;-79
2022/01/05 12:55:25;;;;;;;1.48;0.40;;;;;;;;;;5093210;28;20035;-77
2022/01/05 12:57:55;;;;;;;3.03;0.60;;;;;;;;;;5093241;28;20054;-77
2022/01/05 13:00:21;;;;;;;1.50;0.60;;;;;;;;;;5097145;28;20055;-76
2022/01/05 13:02:47;;;;;;;1.40;0.50;;;;;;;;;;5097339;28;20028;-78
2022/01/05 13:05:13;;;;;;;1.17;0.50;;;;;;;;;;5079111;28;20016;-77
2022/01/05 13:07:41;;;;;;;1.27;0.47;;;;;;;;;;5079079;28;20484;-79
2022/01/05 13:10:13;;;;;;;2.03;0.50;;;;;;;;;;5078773;28;20020;-78
2022/01/05 13:12:39;;;;;;;1.25;0.50;;;;;;;;;;5078981;28;20032;-78
2022/01/05 13:15:09;;;;;;;2.30;0.60;;;;;;;;;;5078804;28;20029;-79
2022/01/05 13:17:36;;;;;;;2.20;0.70;;;;;;;;;;5078666;28;20121;-78
2022/01/05 13:20:03;;;;;;;2.78;0.60;;;;;;;;;;5078623;28;20034;-78
2022/01/05 13:22:32;;;;;;;1.27;0.50;;;;;;;;;;5078717;28;20039;-79
2022/01/05 13:25:06;;;;;;;1.48;0.50;;;;;;;;;;5078673;28;20026;-79
2022/01/05 13:27:34;;;;;;;0.75;0.40;;;;;;;;;;5096813;28;20031;-83
2022/01/05 13:30:04;;;;;;;1.98;0.50;;;;;;;;;;5083031;28;20085;-92
2022/01/05 13:32:43;;;;;;;1.20;0.50;;;;;;;;;;5080519;28;20034;-93
2022/01/05 13:35:11;;;;;;;2.47;0.50;;;;;;;;;;5080567;28;20495;-92
2022/01/05 13:37:47;;;;;;;1.20;0.60;;;;;;;;;;5089296;22;20028;-93
2022/01/05 13:40:15;;;;;;;1.38;0.70;;;;;;;;;;5018048;28;20490;-93
2022/01/05 13:42:44;;;;;;;4.25;0.63;;;;;;;;;;5016934;28;20034;-92
2022/01/05 13:45:11;;;;;;;1.52;0.68;;;;;;;;;;5017719;28;20072;-93
2022/01/05 13:47:38;;;;;;;1.55;0.70;;;;;;;;;;5016934;28;20029;-93
2022/01/05 13:50:13;;;;;;;1.55;0.68;;;;;;;;;;5016888;28;20060;-92
2022/01/05 13:52:39;;;;;;;1.17;0.60;;;;;;;;;;5017127;28;20025;-93
2022/01/05 13:55:06;;;;;;;1.17;0.70;;;;;;;;;;5017303;28;20103;-93
2022/01/05 13:57:33;;;;;;;0.95;0.50;;;;;;;;;;5017054;28;20500;-92
2022/01/05 14:00:01;;;;;;;2.10;0.70;;;;;;;;;;5017190;28;20026;-93
2022/01/05 14:02:28;;;;;;;1.80;0.90;;;;;;;;;;5022486;28;20042;-94
2022/01/05 14:10:38;;;;;;;2.50;1.10;;;;;;;;;;5040074;28;20091;-91
2022/01/05 14:13:06;;;;;;;3.03;1.10;;;;;;;;;;5036936;28;20075;-90
2022/01/05 14:15:33;;;;;;;2.25;1.10;;;;;;;;;;5036707;28;20044;-91
2022/01/05 14:18:01;;;;;;;3.45;1.50;;;;;;;;;;5036651;28;20104;-91
2022/01/05 14:20:31;;;;;;;3.60;1.83;;;;;;;;;;5036623;28;20112;-91
2022/01/05 14:22:59;;;;;;;5.22;2.15;;;;;;;;;;5036835;28;20075;-90
2022/01/05 14:25:52;;;;;;;3.03;1.90;;;;;;;;;;5037016;28;20022;-90
2022/01/05 14:28:37;;;;;;;4.25;1.77;;;;;;;;;;5016525;28;20044;-89
2022/01/05 14:31:40;;;;;;;3.08;1.67;;;;;;;;;;5036882;28;20112;-96
